createdAt,value
2017-12-26T00:01:06.450Z,43.28
2017-12-26T00:03:32.254Z,43.23
2017-12-26T00:05:58.053Z,43.26
2017-12-26T00:08:23.853Z,43.23
2017-12-26T00:10:49.654Z,43.20
2017-12-26T00:13:15.455Z,43.20
2017-12-26T00:15:42.211Z,43.27
2017-12-26T00:18:08.005Z,43.24
2017-12-26T00:20:33.810Z,43.18
2017-12-26T00:22:59.607Z,43.23
2017-12-26T00:25:25.406Z,43.28
2017-12-26T00:27:51.208Z,43.21
2017-12-26T00:30:18.065Z,43.13
2017-12-26T00:32:44.810Z,43.11
2017-12-26T00:35:10.686Z,43.11
2017-12-26T00:37:36.486Z,43.02
2017-12-26T00:40:02.303Z,43.31
2017-12-26T00:42:28.215Z,43.22
2017-12-26T00:44:54.066Z,43.12
2017-12-26T00:47:20.736Z,43.15
2017-12-26T00:49:46.542Z,43.15
2017-12-26T00:52:12.427Z,43.11
2017-12-26T00:54:38.231Z,43.29
2017-12-26T00:57:04.032Z,43.07
2017-12-26T00:59:29.835Z,42.88
2017-12-26T01:01:55.638Z,43.02
2017-12-26T01:04:22.247Z,42.88
2017-12-26T01:06:49.034Z,43.06
2017-12-26T01:09:14.861Z,42.96
2017-12-26T01:11:40.667Z,42.94
2017-12-26T01:14:06.509Z,42.71
2017-12-26T01:16:32.313Z,42.74
2017-12-26T01:18:58.119Z,42.83
2017-12-26T01:21:23.930Z,42.90
2017-12-26T01:23:49.777Z,42.90
2017-12-26T01:26:15.578Z,42.94
2017-12-26T01:28:41.382Z,43.01
2017-12-26T01:31:07.186Z,42.84
2017-12-26T01:33:32.999Z,42.83
2017-12-26T01:35:59.643Z,42.74
2017-12-26T01:38:25.455Z,42.81
2017-12-26T01:40:52.149Z,42.76
2017-12-26T01:43:17.953Z,42.80
2017-12-26T01:45:43.754Z,42.77
2017-12-26T01:48:09.578Z,42.70
2017-12-26T01:50:35.378Z,42.60
2017-12-26T01:53:02.001Z,42.56
2017-12-26T01:55:27.812Z,42.48
2017-12-26T01:57:53.645Z,42.61
2017-12-26T02:00:20.271Z,42.60
2017-12-26T02:02:46.986Z,42.48
2017-12-26T02:05:13.899Z,42.49
2017-12-26T02:07:40.615Z,42.35
2017-12-26T02:10:07.390Z,42.38
2017-12-26T02:12:34.193Z,42.42
2017-12-26T02:15:00.998Z,42.40
2017-12-26T02:17:27.730Z,42.35
2017-12-26T02:19:53.533Z,42.41
2017-12-26T02:22:19.332Z,42.46
2017-12-26T02:24:45.175Z,42.41
2017-12-26T02:27:10.974Z,42.44
2017-12-26T02:29:44.682Z,42.46
2017-12-26T02:32:10.487Z,42.61
2017-12-26T02:34:36.327Z,42.79
2017-12-26T02:37:02.139Z,42.47
2017-12-26T02:39:27.997Z,42.45
2017-12-26T02:41:53.871Z,42.40
2017-12-26T02:44:19.649Z,42.40
2017-12-26T02:46:45.463Z,42.35
2017-12-26T02:49:11.284Z,42.39
2017-12-26T02:51:37.097Z,42.34
2017-12-26T02:54:02.909Z,42.25
2017-12-26T02:56:28.717Z,42.21
2017-12-26T02:58:54.522Z,42.20
2017-12-26T03:01:20.370Z,42.20
2017-12-26T03:03:46.184Z,42.18
2017-12-26T03:06:12.026Z,42.29
2017-12-26T03:08:37.834Z,42.29
2017-12-26T03:11:03.638Z,42.10
2017-12-26T03:13:29.442Z,42.20
2017-12-26T03:15:55.251Z,42.17
2017-12-26T03:18:21.103Z,42.36
2017-12-26T03:20:46.917Z,42.18
2017-12-26T03:23:12.724Z,42.39
2017-12-26T03:25:38.537Z,42.37
2017-12-26T03:28:04.347Z,42.12
2017-12-26T03:30:30.147Z,42.49
2017-12-26T03:32:55.950Z,42.29
2017-12-26T03:35:21.762Z,42.19
2017-12-26T03:37:47.575Z,42.12
2017-12-26T03:40:13.418Z,42.15
2017-12-26T03:42:39.217Z,42.24
2017-12-26T03:45:05.023Z,42.33
2017-12-26T03:47:30.862Z,42.30
2017-12-26T03:49:56.674Z,42.22
2017-12-26T03:52:22.476Z,42.42
2017-12-26T03:54:48.278Z,42.18
2017-12-26T03:57:14.118Z,42.20
2017-12-26T03:59:39.958Z,42.29
2017-12-26T04:02:05.766Z,42.06
2017-12-26T04:04:31.615Z,42.14
2017-12-26T04:06:57.490Z,42.23
2017-12-26T04:09:23.309Z,42.16
2017-12-26T04:11:49.179Z,42.13
2017-12-26T04:14:14.989Z,42.10
2017-12-26T04:16:40.816Z,41.93
2017-12-26T04:19:06.628Z,41.90
2017-12-26T04:21:32.467Z,41.90
2017-12-26T04:23:58.278Z,41.87
2017-12-26T04:26:24.092Z,41.86
2017-12-26T04:28:49.950Z,41.95
2017-12-26T04:31:15.758Z,42.04
2017-12-26T04:33:41.573Z,41.89
2017-12-26T04:36:07.382Z,41.78
2017-12-26T04:38:33.227Z,41.88
2017-12-26T04:40:59.034Z,41.80
2017-12-26T04:43:24.874Z,41.79
2017-12-26T04:45:50.678Z,41.69
2017-12-26T04:48:16.490Z,41.77
2017-12-26T04:50:42.346Z,41.69
2017-12-26T04:53:08.194Z,41.71
2017-12-26T04:55:34.013Z,41.74
2017-12-26T04:57:59.819Z,41.71
2017-12-26T05:00:25.626Z,41.71
2017-12-26T05:02:51.434Z,42.07
2017-12-26T05:05:17.254Z,41.59
2017-12-26T05:07:44.074Z,41.76
2017-12-26T05:10:09.878Z,41.66
2017-12-26T05:12:35.729Z,41.66
2017-12-26T05:15:01.535Z,41.62
2017-12-26T05:17:27.351Z,41.63
2017-12-26T05:19:53.154Z,41.55
2017-12-26T05:22:18.968Z,41.53
2017-12-26T05:24:44.812Z,41.52
2017-12-26T05:27:10.654Z,41.43
2017-12-26T05:29:36.464Z,41.42
2017-12-26T05:32:02.311Z,41.63
2017-12-26T05:34:28.116Z,41.66
2017-12-26T05:36:53.967Z,41.49
2017-12-26T05:39:19.769Z,41.70
2017-12-26T05:41:45.587Z,41.60
2017-12-26T05:44:11.395Z,41.62
2017-12-26T05:46:37.247Z,41.50
2017-12-26T05:49:03.048Z,41.42
2017-12-26T05:51:28.850Z,41.62
2017-12-26T05:53:54.658Z,41.61
2017-12-26T05:56:20.510Z,41.55
2017-12-26T05:58:46.325Z,41.62
2017-12-26T06:01:12.134Z,41.73
2017-12-26T06:03:37.942Z,41.64
2017-12-26T06:06:03.749Z,41.62
2017-12-26T06:08:29.606Z,41.75
2017-12-26T06:10:55.390Z,42.00
2017-12-26T06:13:21.237Z,42.00
2017-12-26T06:15:47.043Z,41.94
2017-12-26T06:18:12.850Z,41.91
2017-12-26T06:20:38.658Z,41.96
2017-12-26T06:23:04.494Z,41.93
2017-12-26T06:25:30.306Z,41.90
2017-12-26T06:27:56.118Z,41.95
2017-12-26T06:30:21.926Z,41.96
2017-12-26T06:32:47.741Z,41.81
2017-12-26T06:35:13.598Z,41.93
2017-12-26T06:37:39.451Z,41.92
2017-12-26T06:40:05.262Z,41.69
2017-12-26T06:42:31.075Z,41.71
2017-12-26T06:44:56.895Z,41.82
2017-12-26T06:47:22.706Z,41.64
2017-12-26T06:49:48.517Z,41.49
2017-12-26T06:52:14.326Z,41.52
2017-12-26T06:54:40.177Z,41.48
2017-12-26T06:57:06.041Z,41.44
2017-12-26T06:59:31.855Z,41.58
2017-12-26T07:01:57.667Z,41.44
2017-12-26T07:04:23.480Z,41.41
2017-12-26T07:06:49.299Z,41.52
2017-12-26T07:09:15.111Z,41.68
2017-12-26T07:11:40.929Z,41.33
2017-12-26T07:14:06.737Z,41.36
2017-12-26T07:16:32.548Z,41.46
2017-12-26T07:18:58.371Z,41.28
2017-12-26T07:21:30.469Z,41.18
2017-12-26T07:26:28.850Z,41.35
2017-12-26T07:28:54.658Z,41.17
2017-12-26T07:31:20.467Z,41.12
2017-12-26T07:33:46.314Z,41.16
2017-12-26T07:36:12.203Z,40.97
2017-12-26T07:38:38.046Z,41.04
2017-12-26T07:41:03.894Z,41.30
2017-12-26T07:43:29.702Z,41.18
2017-12-26T07:45:55.548Z,41.23
2017-12-26T07:48:21.391Z,41.31
2017-12-26T07:50:47.202Z,41.20
2017-12-26T07:53:13.066Z,41.37
2017-12-26T07:55:38.870Z,41.39
2017-12-26T07:58:04.691Z,41.37
2017-12-26T08:00:30.502Z,41.29
2017-12-26T08:02:56.318Z,41.32
2017-12-26T08:05:22.165Z,41.24
2017-12-26T08:07:47.973Z,41.32
2017-12-26T08:10:13.835Z,41.25
2017-12-26T08:12:39.651Z,41.16
2017-12-26T08:15:05.455Z,41.37
2017-12-26T08:17:31.262Z,41.24
2017-12-26T08:19:57.070Z,41.21
2017-12-26T08:22:22.887Z,41.09
2017-12-26T08:24:48.735Z,41.19
2017-12-26T08:27:14.552Z,41.20
2017-12-26T08:29:40.403Z,41.32
2017-12-26T08:32:06.215Z,41.30
2017-12-26T08:34:32.060Z,41.41
2017-12-26T08:36:57.875Z,41.41
2017-12-26T08:39:23.731Z,41.36
2017-12-26T08:41:49.553Z,41.19
2017-12-26T08:44:15.410Z,41.18
2017-12-26T08:46:41.271Z,41.21
2017-12-26T08:49:07.093Z,41.35
2017-12-26T08:51:32.918Z,41.26
2017-12-26T08:53:58.770Z,41.21
2017-12-26T08:56:24.639Z,41.16
2017-12-26T08:58:50.454Z,41.08
2017-12-26T09:01:16.258Z,41.19
2017-12-26T09:03:42.098Z,41.09
2017-12-26T09:06:07.922Z,41.26
2017-12-26T09:08:33.775Z,41.23
2017-12-26T09:10:59.590Z,41.30
2017-12-26T09:13:25.402Z,41.29
2017-12-26T09:15:51.215Z,41.21
2017-12-26T09:18:17.079Z,41.10
2017-12-26T09:20:42.887Z,40.92
2017-12-26T09:23:08.735Z,40.92
2017-12-26T09:25:34.551Z,40.90
2017-12-26T09:28:00.370Z,40.83
2017-12-26T09:30:26.226Z,40.80
2017-12-26T09:32:52.045Z,40.96
2017-12-26T09:35:17.862Z,41.04
2017-12-26T09:37:43.692Z,40.84
2017-12-26T09:40:10.571Z,40.97
2017-12-26T09:42:36.713Z,41.07
2017-12-26T09:45:02.534Z,41.11
2017-12-26T09:47:28.386Z,41.23
2017-12-26T09:49:54.311Z,41.46
2017-12-26T09:52:20.123Z,41.46
2017-12-26T09:54:45.947Z,41.44
2017-12-26T09:57:11.802Z,41.33
2017-12-26T09:59:37.612Z,41.38
2017-12-26T10:02:03.455Z,41.37
2017-12-26T10:04:29.258Z,41.25
2017-12-26T10:06:55.095Z,41.46
2017-12-26T10:09:20.902Z,41.36
2017-12-26T10:11:46.712Z,41.27
2017-12-26T10:14:12.528Z,41.42
2017-12-26T10:16:38.331Z,41.40
2017-12-26T10:19:04.175Z,41.35
2017-12-26T10:21:29.982Z,41.25
2017-12-26T10:23:55.787Z,41.18
2017-12-26T10:26:21.602Z,41.29
2017-12-26T10:28:47.419Z,41.40
2017-12-26T10:31:13.237Z,41.95
2017-12-26T10:33:39.058Z,41.60
2017-12-26T10:36:04.878Z,41.56
2017-12-26T10:38:30.766Z,41.77
2017-12-26T10:41:03.713Z,41.47
2017-12-26T10:43:29.568Z,41.61
2017-12-26T10:45:55.382Z,41.51
2017-12-26T10:48:21.199Z,41.44
2017-12-26T10:50:47.017Z,41.45
2017-12-26T10:53:12.823Z,41.46
2017-12-26T10:55:38.646Z,41.33
2017-12-26T10:58:04.516Z,41.19
2017-12-26T11:00:30.327Z,41.50
2017-12-26T11:02:56.135Z,41.33
2017-12-26T11:05:21.980Z,41.20
2017-12-26T11:07:47.831Z,41.23
2017-12-26T11:10:14.584Z,41.44
2017-12-26T11:12:40.395Z,41.07
2017-12-26T11:15:06.248Z,40.88
2017-12-26T11:17:32.056Z,40.99
2017-12-26T11:19:57.923Z,41.08
2017-12-26T11:22:23.744Z,40.93
2017-12-26T11:24:49.563Z,41.17
2017-12-26T11:27:15.375Z,41.14
2017-12-26T11:29:41.191Z,40.95
2017-12-26T11:32:07.055Z,40.85
2017-12-26T11:34:32.874Z,41.10
2017-12-26T11:36:58.751Z,41.04
2017-12-26T11:39:24.560Z,41.25
2017-12-26T11:41:50.409Z,41.17
2017-12-26T11:44:16.303Z,40.93
2017-12-26T11:46:42.144Z,41.14
2017-12-26T11:49:08.005Z,40.96
2017-12-26T11:51:33.936Z,40.89
2017-12-26T11:53:59.828Z,41.15
2017-12-26T11:56:25.694Z,40.97
2017-12-26T11:58:51.671Z,40.87
2017-12-26T12:01:19.354Z,41.14
2017-12-26T12:03:45.210Z,41.17
2017-12-26T12:06:11.111Z,41.13
2017-12-26T12:08:36.991Z,41.19
2017-12-26T12:11:02.807Z,41.39
2017-12-26T12:13:28.654Z,41.29
2017-12-26T12:15:54.608Z,41.25
2017-12-26T12:18:20.443Z,41.35
2017-12-26T12:20:46.302Z,41.16
2017-12-26T12:23:13.084Z,41.17
2017-12-26T12:25:38.928Z,41.23
2017-12-26T12:28:04.742Z,41.37
2017-12-26T12:30:30.551Z,41.26
2017-12-26T12:32:56.371Z,41.34
2017-12-26T12:35:22.174Z,41.54
2017-12-26T12:37:47.991Z,41.50
2017-12-26T12:40:13.838Z,41.76
2017-12-26T12:42:39.651Z,41.70
2017-12-26T12:45:05.543Z,41.94
2017-12-26T12:47:31.364Z,41.87
2017-12-26T12:49:57.222Z,41.82
2017-12-26T12:52:23.031Z,41.61
2017-12-26T12:54:48.920Z,41.68
2017-12-26T12:57:14.732Z,41.67
2017-12-26T12:59:40.605Z,41.90
2017-12-26T13:02:06.418Z,41.94
2017-12-26T13:04:32.272Z,42.04
2017-12-26T13:06:58.080Z,41.82
2017-12-26T13:09:23.888Z,41.65
2017-12-26T13:11:49.735Z,41.74
2017-12-26T13:14:17.504Z,41.61
2017-12-26T13:16:43.368Z,42.24
2017-12-26T13:19:09.559Z,42.06
2017-12-26T13:21:35.414Z,42.75
2017-12-26T13:24:01.252Z,41.89
2017-12-26T13:26:27.067Z,41.96
2017-12-26T13:28:52.892Z,41.66
2017-12-26T13:31:18.739Z,41.83
2017-12-26T13:33:44.546Z,41.80
2017-12-26T13:36:10.401Z,41.90
2017-12-26T13:38:36.215Z,42.52
2017-12-26T13:41:02.130Z,42.34
2017-12-26T13:43:27.986Z,42.67
2017-12-26T13:45:53.801Z,42.16
2017-12-26T13:48:19.616Z,42.15
2017-12-26T13:50:45.422Z,42.14
2017-12-26T13:53:11.231Z,42.40
2017-12-26T13:55:37.038Z,42.23
2017-12-26T13:58:02.850Z,42.90
2017-12-26T14:00:28.706Z,42.31
2017-12-26T14:02:54.614Z,42.47
2017-12-26T14:05:20.431Z,42.76
2017-12-26T14:07:47.164Z,42.72
2017-12-26T14:10:12.992Z,42.75
2017-12-26T14:12:38.849Z,43.29
2017-12-26T14:15:04.713Z,42.90
2017-12-26T14:17:30.548Z,42.82
2017-12-26T14:19:56.373Z,43.06
2017-12-26T14:22:22.192Z,42.80
2017-12-26T14:24:49.115Z,43.60
2017-12-26T14:27:14.938Z,43.13
2017-12-26T14:29:40.765Z,43.12
2017-12-26T14:32:06.716Z,43.17
2017-12-26T14:34:32.527Z,43.06
2017-12-26T14:36:58.501Z,43.57
2017-12-26T14:39:24.324Z,43.26
2017-12-26T14:41:50.189Z,43.02
2017-12-26T14:44:17.231Z,43.12
2017-12-26T14:46:43.114Z,43.17
2017-12-26T14:49:09.122Z,43.40
2017-12-26T14:51:35.171Z,43.06
2017-12-26T14:54:01.000Z,43.61
2017-12-26T14:56:26.919Z,43.56
2017-12-26T14:58:52.822Z,43.44
2017-12-26T15:01:18.648Z,43.53
2017-12-26T15:03:44.451Z,43.48
2017-12-26T15:06:10.311Z,44.15
2017-12-26T15:08:36.131Z,44.28
2017-12-26T15:11:01.945Z,44.40
2017-12-26T15:13:27.787Z,44.72
2017-12-26T15:15:53.731Z,44.87
2017-12-26T15:18:19.586Z,44.48
2017-12-26T15:20:45.395Z,44.66
2017-12-26T15:23:11.258Z,44.55
2017-12-26T15:25:37.106Z,45.36
2017-12-26T15:28:02.971Z,44.79
2017-12-26T15:30:28.834Z,44.96
2017-12-26T15:32:54.643Z,45.01
2017-12-26T15:35:20.491Z,44.99
2017-12-26T15:37:46.297Z,44.90
2017-12-26T15:40:12.146Z,45.16
2017-12-26T15:42:38.073Z,45.03
2017-12-26T15:45:04.738Z,45.35
2017-12-26T15:47:30.574Z,45.08
2017-12-26T15:49:56.418Z,45.27
2017-12-26T15:52:22.276Z,45.21
2017-12-26T15:54:48.084Z,45.05
2017-12-26T15:57:14.606Z,45.27
2017-12-26T15:59:40.510Z,45.46
2017-12-26T16:02:06.325Z,45.25
2017-12-26T16:04:32.137Z,45.32
2017-12-26T16:06:57.965Z,45.14
2017-12-26T16:09:23.800Z,45.37
2017-12-26T16:11:49.754Z,45.25
2017-12-26T16:14:16.818Z,45.40
2017-12-26T16:16:42.698Z,45.30
2017-12-26T16:19:08.514Z,45.45
2017-12-26T16:21:34.327Z,45.41
2017-12-26T16:24:00.170Z,45.37
2017-12-26T16:26:25.993Z,45.65
2017-12-26T16:28:51.815Z,45.39
2017-12-26T16:31:21.234Z,45.36
2017-12-26T16:33:47.046Z,45.54
2017-12-26T16:36:12.911Z,45.88
2017-12-26T16:38:38.762Z,45.55
2017-12-26T16:41:04.579Z,45.27
2017-12-26T16:43:30.931Z,45.49
2017-12-26T16:45:56.829Z,45.29
2017-12-26T16:48:22.630Z,45.38
2017-12-26T16:50:48.438Z,45.42
2017-12-26T16:53:17.482Z,45.34
2017-12-26T16:58:17.382Z,45.29
2017-12-26T17:00:43.186Z,45.24
2017-12-26T17:03:09.008Z,45.20
2017-12-26T17:05:35.084Z,45.38
2017-12-26T17:08:01.027Z,45.14
2017-12-26T17:10:26.838Z,45.24
2017-12-26T17:12:52.652Z,45.31
2017-12-26T17:15:18.499Z,45.47
2017-12-26T17:17:44.310Z,45.49
2017-12-26T17:20:10.259Z,45.35
2017-12-26T17:22:36.110Z,45.45
2017-12-26T17:25:01.930Z,45.29
2017-12-26T17:27:27.776Z,45.00
2017-12-26T17:29:53.592Z,44.93
2017-12-26T17:32:19.410Z,45.28
2017-12-26T17:34:45.347Z,44.73
2017-12-26T17:37:11.195Z,44.74
2017-12-26T17:39:37.031Z,44.71
2017-12-26T17:42:02.843Z,44.65
2017-12-26T17:44:28.668Z,44.70
2017-12-26T17:46:54.470Z,44.75
2017-12-26T17:49:20.329Z,44.80
2017-12-26T17:51:46.350Z,44.75
2017-12-26T17:54:12.178Z,44.97
2017-12-26T17:56:38.083Z,44.92
2017-12-26T17:59:03.918Z,44.81
2017-12-26T18:01:29.734Z,44.77
2017-12-26T18:03:55.946Z,44.98
2017-12-26T18:06:21.828Z,45.02
2017-12-26T18:08:47.698Z,44.78
2017-12-26T18:11:13.510Z,44.63
2017-12-26T18:13:39.375Z,44.75
2017-12-26T18:16:05.192Z,44.63
2017-12-26T18:18:31.055Z,44.53
2017-12-26T18:20:56.867Z,44.46
2017-12-26T18:23:22.698Z,44.41
2017-12-26T18:25:48.558Z,44.40
2017-12-26T18:28:14.362Z,44.39
2017-12-26T18:30:40.170Z,44.33
2017-12-26T18:33:05.977Z,44.19
2017-12-26T18:35:31.797Z,44.10
2017-12-26T18:37:57.634Z,44.31
2017-12-26T18:40:23.456Z,44.05
2017-12-26T18:42:49.392Z,43.94
2017-12-26T18:45:15.218Z,43.96
2017-12-26T18:47:41.057Z,44.02
2017-12-26T18:50:06.862Z,44.06
2017-12-26T18:52:32.759Z,43.82
2017-12-26T18:54:58.593Z,43.82
2017-12-26T18:57:24.443Z,43.90
2017-12-26T18:59:50.286Z,43.79
2017-12-26T19:02:16.089Z,43.85
2017-12-26T19:04:41.929Z,43.80
2017-12-26T19:07:07.926Z,43.87
2017-12-26T19:09:33.797Z,43.71
2017-12-26T19:11:59.606Z,43.64
2017-12-26T19:14:25.413Z,43.54
2017-12-26T19:16:51.222Z,43.69
2017-12-26T19:19:17.090Z,43.69
2017-12-26T19:21:42.901Z,43.52
2017-12-26T19:24:08.758Z,43.53
2017-12-26T19:26:34.569Z,43.59
2017-12-26T19:29:00.544Z,43.41
2017-12-26T19:31:27.146Z,43.59
2017-12-26T19:33:52.949Z,43.28
2017-12-26T19:36:18.799Z,43.13
2017-12-26T19:38:44.605Z,43.00
2017-12-26T19:41:10.458Z,42.98
2017-12-26T19:43:36.278Z,43.17
2017-12-26T19:46:02.097Z,42.97
2017-12-26T19:48:27.908Z,43.34
2017-12-26T19:50:53.798Z,43.04
2017-12-26T19:53:19.656Z,42.93
2017-12-26T19:55:45.477Z,42.85
2017-12-26T19:58:11.920Z,42.83
2017-12-26T20:00:38.802Z,42.88
2017-12-26T20:03:05.410Z,43.07
2017-12-26T20:05:32.088Z,42.86
2017-12-26T20:07:58.829Z,42.92
2017-12-26T20:10:25.475Z,42.79
2017-12-26T20:12:53.009Z,42.89
2017-12-26T20:15:24.987Z,42.77
2017-12-26T20:17:50.898Z,42.95
2017-12-26T20:20:16.906Z,42.79
2017-12-26T20:22:46.359Z,42.94
2017-12-26T20:25:12.362Z,42.75
2017-12-26T20:27:38.366Z,42.85
2017-12-26T20:30:04.185Z,42.93
2017-12-26T20:32:30.045Z,42.87
2017-12-26T20:34:56.017Z,42.98
2017-12-26T20:37:21.942Z,42.74
2017-12-26T20:39:47.822Z,42.77
2017-12-26T20:42:14.019Z,42.79
2017-12-26T20:44:39.842Z,42.62
2017-12-26T20:47:05.659Z,42.71
2017-12-26T20:49:31.594Z,42.71
2017-12-26T20:52:00.550Z,42.77
2017-12-26T20:54:27.870Z,42.78
2017-12-26T20:56:53.817Z,42.71
2017-12-26T20:59:21.892Z,43.01
2017-12-26T21:01:49.102Z,42.72
2017-12-26T21:04:16.364Z,42.87
2017-12-26T21:06:42.249Z,42.66
2017-12-26T21:09:09.018Z,42.83
2017-12-26T21:11:34.858Z,42.75
2017-12-26T21:14:00.674Z,42.77
2017-12-26T21:16:26.513Z,42.69
2017-12-26T21:18:52.334Z,42.65
2017-12-26T21:21:18.149Z,42.67
2017-12-26T21:23:43.963Z,42.58
2017-12-26T21:26:09.790Z,42.63
2017-12-26T21:28:35.594Z,42.63
2017-12-26T21:31:02.324Z,42.73
2017-12-26T21:33:30.494Z,42.65
2017-12-26T21:35:57.120Z,42.82
2017-12-26T21:38:23.895Z,42.72
2017-12-26T21:40:49.709Z,42.68
2017-12-26T21:43:15.521Z,42.64
2017-12-26T21:45:42.450Z,42.65
2017-12-26T21:48:08.313Z,42.56
2017-12-26T21:50:34.214Z,42.58
2017-12-26T21:53:00.173Z,42.55
2017-12-26T21:55:27.179Z,42.32
2017-12-26T21:57:52.995Z,42.46
2017-12-26T22:00:18.841Z,42.45
2017-12-26T22:02:45.843Z,42.28
2017-12-26T22:05:11.686Z,43.03
2017-12-26T22:07:37.494Z,42.32
2017-12-26T22:10:03.323Z,42.37
2017-12-26T22:12:29.166Z,42.14
2017-12-26T22:14:54.975Z,42.28
2017-12-26T22:19:55.261Z,42.36
2017-12-26T22:22:22.626Z,42.19
2017-12-26T22:24:48.798Z,42.31
2017-12-26T22:27:14.698Z,42.58
2017-12-26T22:29:40.530Z,42.34
2017-12-26T22:32:06.334Z,43.09
2017-12-26T22:34:32.870Z,42.09
2017-12-26T22:36:58.781Z,42.31
2017-12-26T22:39:24.838Z,42.17
2017-12-26T22:41:50.707Z,42.07
2017-12-26T22:44:19.562Z,42.12
2017-12-26T22:46:45.375Z,42.20
2017-12-26T22:49:11.225Z,42.17
2017-12-26T22:51:37.033Z,42.16
2017-12-26T22:54:02.853Z,42.01
2017-12-26T22:56:28.679Z,42.04
2017-12-26T22:58:54.630Z,41.92
2017-12-26T23:01:20.446Z,41.86
2017-12-26T23:03:46.359Z,41.72
2017-12-26T23:06:12.281Z,41.77
2017-12-26T23:08:38.222Z,41.78
2017-12-26T23:11:04.039Z,41.86
2017-12-26T23:13:29.866Z,41.61
2017-12-26T23:16:01.738Z,41.62
2017-12-26T23:18:27.598Z,41.91
2017-12-26T23:20:59.387Z,41.86
2017-12-26T23:23:32.417Z,41.93
2017-12-26T23:26:04.222Z,42.05
2017-12-26T23:28:36.213Z,41.99
2017-12-26T23:31:08.182Z,42.07
2017-12-26T23:33:40.238Z,41.98
2017-12-26T23:36:12.035Z,42.08
2017-12-26T23:38:44.087Z,42.16
2017-12-26T23:41:16.018Z,42.17
2017-12-26T23:43:47.837Z,42.07
2017-12-26T23:46:20.002Z,42.20
2017-12-26T23:48:51.973Z,42.08
2017-12-26T23:51:23.934Z,42.01
2017-12-26T23:53:56.007Z,41.95
2017-12-26T23:56:28.104Z,42.09
2017-12-26T23:59:00.109Z,42.08
